Всё
Kane County Hospital Airport (Kanab, UT) UT02 Погода
There is no TAF data available at UT02 or any nearby airports.
There is no METAR data available at UT02. Showing METAR data for KKNB (3 mi Ю).
Недавняя история METAR для KNB (для UT02 данные отсутствуют)
| Date | Time (MDT) | Flight Rules | Wind Dir. | Speed | Type | Height AGL (ft) | Visibility | Temp (°C) | Temp (°F) | Dew Point (°C) | Dew Point (°F) | Rel. Humid. | Pressure | Density Altitude | Remarks |
|---|---|---|---|---|---|---|---|---|---|---|---|---|---|---|---|
| 04-сен | 09:55 | VFR | 200° | 9 kt | 9 miles |
24° | 75° | 6° | 42° | 31% | 30.14 in Hg | 6,677 ft | |||
| 04-сен | 09:35 | VFR | 190° | 7 kt | 10 miles |
23° | 73° | 6° | 42° | 33% | 30.14 in Hg | 6,557 ft | |||
| 04-сен | 09:15 | VFR | 190° | kt | 9 miles | 22° | 71° | 6° | 42° | 35% | 30.14 in Hg | 6,437 ft | |||
| 04-сен | 08:55 | VFR | 180° | 1 kt | 9 miles | 21° | 69° | 7° | 44° | 40% | 30.13 in Hg | 6,327 ft | |||
| 04-сен | 08:35 | VFR | 300° | kt | 9 miles | 20° | 68° | 7° | 44° | 43% | 30.13 in Hg | 6,207 ft | |||
| 04-сен | 08:15 | VFR | 300° | kt | 9 miles | 19° | 66° | 9° | 48° | 52% | 30.13 in Hg | 6,087 ft | |||
| 04-сен | 07:55 | VFR | 50° | kt | 9 miles |
16° | 60° | 9° | 48° | 63% | 30.12 in Hg | 5,737 ft | |||
| 04-сен | 06:55 | VFR | 80° | kt | 10 miles | 13° | 55° | 9° | 48° | 77% | 30.10 in Hg | 5,397 ft | |||
| 04-сен | 06:15 | VFR | 100° | kt | 10 miles | 12° | 53° | 8° | 46° | 76% | 30.09 in Hg | 5,287 ft | |||
| 04-сен | 05:35 | VFR | 50° | kt | 10 miles | 14° | 57° | 9° | 48° | 72% | 30.08 in Hg | 5,537 ft | |||
| 04-сен | 05:15 | VFR | 320° | kt | 10 miles | 15° | 59° | 9° | 48° | 67% | 30.07 in Hg | 5,667 ft | |||
| 04-сен | 04:55 | VFR | 10° | kt | 10 miles | 16° | 60° | 10° | 50° | 68% | 30.07 in Hg | 5,787 ft | |||
| 04-сен | 04:15 | VFR | 70° | kt | 10 miles | 16° | 60° | 9° | 48° | 63% | 30.06 in Hg | 5,797 ft | |||
| 04-сен | 03:55 | VFR | 150° | kt | 10 miles | 16° | 60° | 9° | 48° | 63% | 30.05 in Hg | 5,807 ft | |||
| 04-сен | 03:35 | VFR | 160° | kt | 10 miles | 16° | 60° | 9° | 48° | 63% | 30.05 in Hg | 5,807 ft | |||
| 04-сен | 03:15 | VFR | 90° | 3 kt | 10 miles | 16° | 60° | 9° | 48° | 63% | 30.05 in Hg | 5,807 ft | |||
| 04-сен | 02:55 | VFR | 80° | kt | 10 miles | 15° | 59° | 8° | 46° | 63% | 30.05 in Hg | 5,687 ft | |||
| 04-сен | 02:35 | VFR | 50° | kt | 10 miles | 15° | 59° | 9° | 48° | 67% | 30.05 in Hg | 5,687 ft | |||
| 04-сен | 02:15 | VFR | 10° | kt | 10 miles | 16° | 60° | 8° | 46° | 59% | 30.06 in Hg | 5,797 ft | |||
| gap in available data | |||||||||||||||
| 04-сен | 00:55 | VFR | 70° | kt | 10 miles | 16° | 60° | 5° | 41° | 48% | 30.06 in Hg | 5,797 ft | |||
| 04-сен | 00:35 | VFR | 90° | kt | 10 miles | 16° | 60° | 4° | 39° | 45% | 30.06 in Hg | 5,797 ft | |||
| 04-сен | 00:15 | VFR | 80° | kt | 10 miles | 17° | 62° | 5° | 41° | 45% | 30.05 in Hg | 5,927 ft | |||
| 03-сен | 23:55 | VFR | 70° | kt | 10 miles | 17° | 62° | 5° | 41° | 45% | 30.05 in Hg | 5,927 ft | |||
| 03-сен | 23:35 | VFR | 80° | kt | 10 miles | 17° | 62° | 5° | 41° | 45% | 30.04 in Hg | 5,937 ft | |||
Вход
| Ваш браузер не поддерживается.. обновите веб-браузер |
